createdAt,value
2023-02-06T00:02:59.850Z,102110.03
2023-02-06T00:08:04.768Z,102111.40
2023-02-06T00:13:08.929Z,102107.08
2023-02-06T00:18:13.292Z,102099.24
2023-02-06T00:23:18.361Z,102098.70
2023-02-06T00:28:22.444Z,102096.91
2023-02-06T00:33:26.479Z,102093.28
2023-02-06T00:38:30.160Z,102100.89
2023-02-06T00:43:34.103Z,102099.63
2023-02-06T00:48:38.112Z,102090.01
2023-02-06T00:53:41.830Z,102083.18
2023-02-06T00:58:45.177Z,102087.96
2023-02-06T01:03:49.012Z,102072.27
2023-02-06T01:08:53.550Z,102077.69
2023-02-06T01:14:01.757Z,102071.20
2023-02-06T01:19:05.865Z,102060.39
2023-02-06T01:24:10.451Z,102061.03
2023-02-06T01:29:14.883Z,102052.89
2023-02-06T01:34:19.405Z,102058.16
2023-02-06T01:39:24.220Z,102048.45
2023-02-06T01:44:28.392Z,102040.45
2023-02-06T01:49:41.353Z,102042.06
2023-02-06T01:54:49.204Z,102040.69
2023-02-06T01:59:57.697Z,102045.23
2023-02-06T02:05:04.149Z,102047.82
2023-02-06T02:10:08.856Z,102059.39
2023-02-06T02:15:13.297Z,102059.31
2023-02-06T02:21:00.447Z,102066.20
2023-02-06T02:26:53.827Z,102072.66
2023-02-06T02:32:15.262Z,102074.73
2023-02-06T02:37:39.865Z,102075.80
2023-02-06T02:43:05.105Z,102075.03
2023-02-06T02:48:15.203Z,102072.17
2023-02-06T02:53:20.755Z,102069.52
2023-02-06T02:58:31.054Z,102062.15
2023-02-06T03:03:40.563Z,102060.96
2023-02-06T03:09:03.887Z,102052.58
2023-02-06T03:14:12.564Z,102045.95
2023-02-06T03:19:23.968Z,102045.89
2023-02-06T03:24:33.428Z,102038.44
2023-02-06T03:29:41.048Z,102043.83
2023-02-06T03:35:00.802Z,102041.36
2023-02-06T03:40:06.970Z,102030.55
2023-02-06T03:45:16.893Z,102033.91
2023-02-06T03:50:24.478Z,102025.13
2023-02-06T03:55:29.080Z,102022.20
2023-02-06T04:00:33.908Z,102012.79
2023-02-06T04:05:38.888Z,102006.57
2023-02-06T04:10:42.588Z,102016.39
2023-02-06T04:15:50.360Z,102024.20
2023-02-06T04:20:54.940Z,102026.66
2023-02-06T04:26:00.137Z,102023.38
2023-02-06T04:31:05.335Z,102023.03
2023-02-06T04:36:09.238Z,102021.67
2023-02-06T04:41:14.225Z,102021.34
2023-02-06T04:46:19.011Z,102022.76
2023-02-06T04:51:22.616Z,102024.34
2023-02-06T04:56:26.385Z,102021.23
2023-02-06T05:01:31.727Z,102024.13
2023-02-06T05:06:36.758Z,102025.55
2023-02-06T05:11:41.165Z,102022.59
2023-02-06T05:16:46.094Z,102024.96
2023-02-06T05:21:51.298Z,102025.12
2023-02-06T05:26:58.570Z,102023.06
2023-02-06T05:32:04.524Z,102028.41
2023-02-06T05:37:08.194Z,102032.30
2023-02-06T05:42:12.399Z,102039.40
2023-02-06T05:47:17.987Z,102035.85
2023-02-06T05:52:22.459Z,102040.75
2023-02-06T05:57:26.962Z,102044.10
2023-02-06T06:02:31.531Z,102042.73
2023-02-06T06:07:34.928Z,102048.90
2023-02-06T06:12:38.707Z,102058.59
2023-02-06T06:17:42.416Z,102058.92
2023-02-06T06:22:46.627Z,102051.62
2023-02-06T06:27:51.408Z,102054.25
2023-02-06T06:32:55.655Z,102057.38
2023-02-06T06:38:00.219Z,102059.79
2023-02-06T06:43:04.896Z,102054.08
2023-02-06T06:48:08.873Z,102061.56
2023-02-06T06:53:12.143Z,102066.79
2023-02-06T06:58:16.770Z,102070.02
2023-02-06T07:03:22.702Z,102068.45
2023-02-06T07:08:30.603Z,102069.77
2023-02-06T07:13:58.919Z,102071.27
2023-02-06T07:19:02.989Z,102069.38
2023-02-06T07:24:07.348Z,102067.30
2023-02-06T07:29:12.241Z,102076.52
2023-02-06T07:34:17.486Z,102081.51
2023-02-06T07:39:22.153Z,102083.54
2023-02-06T07:44:26.653Z,102090.05
2023-02-06T07:49:31.525Z,102092.92
2023-02-06T07:54:36.672Z,102086.60
2023-02-06T07:59:41.082Z,102087.64
2023-02-06T08:04:44.764Z,102073.23
2023-02-06T08:09:48.840Z,102074.88
2023-02-06T08:14:54.917Z,102082.14
2023-02-06T08:19:59.819Z,102083.82
2023-02-06T08:25:05.504Z,102091.55
2023-02-06T08:30:10.865Z,102088.04
2023-02-06T08:35:15.759Z,102076.41
2023-02-06T08:40:22.050Z,102077.45
2023-02-06T08:45:26.739Z,102074.70
2023-02-06T08:50:31.603Z,102065.11
2023-02-06T08:55:36.434Z,102069.16
2023-02-06T09:00:40.636Z,102073.52
2023-02-06T09:05:44.818Z,102070.58
2023-02-06T09:10:49.488Z,102076.15
2023-02-06T09:15:54.976Z,102071.33
2023-02-06T09:21:08.840Z,102080.29
2023-02-06T09:26:16.063Z,102081.52
2023-02-06T09:31:22.422Z,102084.79
2023-02-06T09:36:28.064Z,102083.48
2023-02-06T09:41:39.153Z,102086.58
2023-02-06T09:46:55.991Z,102088.98
2023-02-06T09:52:24.570Z,102094.61
2023-02-06T09:57:40.528Z,102086.05
2023-02-06T10:03:21.469Z,102088.85
2023-02-06T10:08:57.840Z,102091.20
2023-02-06T10:14:07.846Z,102093.02
2023-02-06T10:19:30.341Z,102087.38
2023-02-06T10:25:12.247Z,102088.33
2023-02-06T10:30:20.548Z,102092.16
2023-02-06T10:35:59.330Z,102088.48
2023-02-06T10:41:38.615Z,102077.41
2023-02-06T10:46:49.242Z,102070.79
2023-02-06T10:52:00.215Z,102074.76
2023-02-06T10:57:12.583Z,102075.72
2023-02-06T11:02:22.790Z,102075.28
2023-02-06T11:07:30.517Z,102074.02
2023-02-06T11:12:41.797Z,102080.04
2023-02-06T11:17:46.267Z,102071.52
2023-02-06T11:22:53.434Z,102072.90
2023-02-06T11:28:00.756Z,102070.98
2023-02-06T11:33:23.287Z,102070.56
2023-02-06T11:38:32.773Z,102078.17
2023-02-06T11:44:07.242Z,102067.63
2023-02-06T11:49:29.528Z,102064.00
2023-02-06T11:54:36.137Z,102068.78
2023-02-06T11:59:55.607Z,102073.55
2023-02-06T12:05:25.954Z,102074.41
2023-02-06T12:10:35.693Z,102071.20
2023-02-06T12:15:49.264Z,102070.56
2023-02-06T12:21:00.003Z,102067.96
2023-02-06T12:26:09.859Z,102067.52
2023-02-06T12:31:48.910Z,102066.98
2023-02-06T12:37:37.382Z,102066.89
2023-02-06T12:42:54.113Z,102066.34
2023-02-06T12:48:29.332Z,102074.05
2023-02-06T12:54:00.515Z,102075.05
2023-02-06T12:59:07.601Z,102069.34
2023-02-06T13:04:24.348Z,102072.23
2023-02-06T13:09:40.370Z,102073.77
2023-02-06T13:14:53.692Z,102067.92
2023-02-06T13:20:07.636Z,102071.42
2023-02-06T13:25:28.384Z,102076.55
2023-02-06T13:30:33.930Z,102067.91
2023-02-06T13:36:04.626Z,102058.73
2023-02-06T13:41:15.734Z,102064.86
2023-02-06T13:46:33.983Z,102067.41
2023-02-06T13:51:49.121Z,102061.39
2023-02-06T13:57:15.447Z,102056.03
2023-02-06T14:02:28.053Z,102062.91
2023-02-06T14:08:14.784Z,102072.23
2023-02-06T14:13:30.003Z,102065.19
2023-02-06T14:18:43.728Z,102072.49
2023-02-06T14:24:35.910Z,102077.98
2023-02-06T14:29:46.121Z,102080.52
2023-02-06T14:35:12.598Z,102085.60
2023-02-06T14:40:30.705Z,102081.63
2023-02-06T14:45:42.443Z,102088.53
2023-02-06T14:50:56.345Z,102091.31
2023-02-06T14:56:15.910Z,102087.27
2023-02-06T15:01:29.353Z,102091.67
2023-02-06T15:06:39.309Z,102094.20
2023-02-06T15:11:51.677Z,102105.83
2023-02-06T15:17:00.543Z,102109.37
2023-02-06T15:22:16.969Z,102117.09
2023-02-06T15:27:31.530Z,102119.73
2023-02-06T15:32:40.893Z,102120.92
2023-02-06T15:37:45.656Z,102117.98
2023-02-06T15:42:51.198Z,102126.48
2023-02-06T15:47:56.509Z,102131.87
2023-02-06T15:54:29.994Z,102126.38
2023-02-06T15:59:42.174Z,102131.20
2023-02-06T16:04:53.517Z,102143.59
2023-02-06T16:10:05.729Z,102159.04
2023-02-06T16:15:38.476Z,102159.56
2023-02-06T16:20:44.434Z,102162.45
2023-02-06T16:26:15.316Z,102173.67
2023-02-06T16:31:20.743Z,102184.34
2023-02-06T16:36:26.297Z,102191.59
2023-02-06T16:41:39.818Z,102192.70
2023-02-06T16:46:44.861Z,102190.50
2023-02-06T16:51:52.921Z,102190.59
2023-02-06T16:57:10.445Z,102190.40
2023-02-06T17:02:15.178Z,102189.71
2023-02-06T17:07:23.707Z,102190.45
2023-02-06T17:12:30.068Z,102189.06
2023-02-06T17:17:34.296Z,102192.95
2023-02-06T17:22:38.899Z,102198.17
2023-02-06T17:27:44.549Z,102201.55
2023-02-06T17:32:50.120Z,102209.14
2023-02-06T17:37:55.212Z,102227.30
2023-02-06T17:43:02.599Z,102242.04
2023-02-06T17:48:08.434Z,102243.84
2023-02-06T17:53:14.933Z,102231.85
2023-02-06T17:58:20.781Z,102226.63
2023-02-06T18:03:27.106Z,102233.77
2023-02-06T18:08:31.808Z,102234.02
2023-02-06T18:13:36.323Z,102236.11
2023-02-06T18:18:41.735Z,102240.77
2023-02-06T18:23:48.213Z,102237.37
2023-02-06T18:28:53.568Z,102225.95
2023-02-06T18:33:59.558Z,102221.35
2023-02-06T18:39:05.962Z,102220.16
2023-02-06T18:44:12.862Z,102222.86
2023-02-06T18:49:18.207Z,102218.80
2023-02-06T18:54:22.979Z,102224.16
2023-02-06T18:59:28.123Z,102216.64
2023-02-06T19:04:37.089Z,102206.70
2023-02-06T19:09:41.903Z,102204.76
2023-02-06T19:14:46.883Z,102213.04
2023-02-06T19:19:51.640Z,102205.80
2023-02-06T19:25:00.607Z,102207.51
2023-02-06T19:30:11.978Z,102219.72
2023-02-06T19:35:18.823Z,102236.95
2023-02-06T19:40:23.305Z,102236.14
2023-02-06T19:45:27.865Z,102239.73
2023-02-06T19:50:35.229Z,102243.86
2023-02-06T19:55:48.741Z,102243.10
2023-02-06T20:00:56.231Z,102243.41
2023-02-06T20:06:05.706Z,102241.98
2023-02-06T20:11:16.770Z,102241.20
2023-02-06T20:16:23.936Z,102243.72
2023-02-06T20:21:35.069Z,102249.48
2023-02-06T20:26:41.576Z,102254.05
2023-02-06T20:31:46.288Z,102261.36
2023-02-06T20:36:51.804Z,102269.65
2023-02-06T20:41:56.097Z,102267.14
2023-02-06T20:47:01.846Z,102268.80
2023-02-06T20:52:07.553Z,102291.30
2023-02-06T20:57:12.257Z,102292.86
2023-02-06T21:02:17.033Z,102297.33
2023-02-06T21:07:21.609Z,102289.14
2023-02-06T21:12:27.268Z,102281.32
2023-02-06T21:17:32.838Z,102291.56
2023-02-06T21:22:37.950Z,102300.91
2023-02-06T21:27:43.656Z,102306.60
2023-02-06T21:32:48.710Z,102301.77
2023-02-06T21:37:53.377Z,102295.09
2023-02-06T21:42:57.645Z,102285.16
2023-02-06T21:48:02.151Z,102284.86
2023-02-06T21:53:06.148Z,102287.13
2023-02-06T21:58:10.540Z,102294.79
2023-02-06T22:03:15.623Z,102297.27
2023-02-06T22:08:20.303Z,102294.96
2023-02-06T22:13:24.822Z,102290.27
2023-02-06T22:18:29.245Z,102286.05
2023-02-06T22:23:37.330Z,102280.83
2023-02-06T22:28:42.104Z,102278.71
2023-02-06T22:33:47.136Z,102278.02
2023-02-06T22:39:00.655Z,102292.44
2023-02-06T22:44:04.559Z,102292.69
2023-02-06T22:49:10.017Z,102298.85
2023-02-06T22:54:15.115Z,102302.25
2023-02-06T22:59:26.428Z,102296.47
2023-02-06T23:04:36.608Z,102298.51
2023-02-06T23:09:41.399Z,102302.78
2023-02-06T23:14:46.038Z,102304.84
2023-02-06T23:19:50.507Z,102301.64
2023-02-06T23:24:56.092Z,102307.70
2023-02-06T23:30:01.307Z,102298.92
2023-02-06T23:35:06.430Z,102300.20
2023-02-06T23:40:10.848Z,102306.88
2023-02-06T23:45:15.616Z,102315.67
2023-02-06T23:50:20.773Z,102318.47
2023-02-06T23:55:28.259Z,102316.78
